sensor_id;sensor_type;location;lat;lon;timestamp;pressure;altitude;pressure_sealevel;temperature;humidity
3150;BME280;32503;47.748;8.960;2024-02-23T00:02:04;95172.59;;;9.19;64.60
3150;BME280;32503;47.748;8.960;2024-02-23T00:04:33;95181.03;;;9.21;65.45
3150;BME280;32503;47.748;8.960;2024-02-23T00:06:59;95175.28;;;9.15;65.54
3150;BME280;32503;47.748;8.960;2024-02-23T00:09:28;95154.88;;;9.07;66.08
3150;BME280;32503;47.748;8.960;2024-02-23T00:11:55;95163.34;;;9.05;66.41
3150;BME280;32503;47.748;8.960;2024-02-23T00:14:22;95158.72;;;8.95;66.67
3150;BME280;32503;47.748;8.960;2024-02-23T00:16:50;95158.69;;;8.70;66.40
3150;BME280;32503;47.748;8.960;2024-02-23T00:19:17;95153.34;;;8.73;66.58
3150;BME280;32503;47.748;8.960;2024-02-23T00:21:46;95155.22;;;8.66;66.66
3150;BME280;32503;47.748;8.960;2024-02-23T00:24:16;95134.81;;;8.54;66.88
3150;BME280;32503;47.748;8.960;2024-02-23T00:26:43;95138.69;;;8.60;66.20
3150;BME280;32503;47.748;8.960;2024-02-23T00:29:10;95134.44;;;8.66;65.31
3150;BME280;32503;47.748;8.960;2024-02-23T00:31:38;95125.97;;;8.57;65.61
3150;BME280;32503;47.748;8.960;2024-02-23T00:34:06;95122.16;;;8.58;65.38
3150;BME280;32503;47.748;8.960;2024-02-23T00:36:37;95131.34;;;8.50;65.33
3150;BME280;32503;47.748;8.960;2024-02-23T00:39:06;95122.50;;;8.49;65.58
3150;BME280;32503;47.748;8.960;2024-02-23T00:41:34;95124.81;;;8.44;64.88
3150;BME280;32503;47.748;8.960;2024-02-23T00:44:01;95122.16;;;8.58;64.97
3150;BME280;32503;47.748;8.960;2024-02-23T00:46:28;95117.88;;;8.43;64.39
3150;BME280;32503;47.748;8.960;2024-02-23T00:48:55;95117.13;;;8.53;64.15
3150;BME280;32503;47.748;8.960;2024-02-23T00:51:23;95133.28;;;8.57;64.45
3150;BME280;32503;47.748;8.960;2024-02-23T00:53:50;95121.75;;;8.60;63.62
3150;BME280;32503;47.748;8.960;2024-02-23T00:56:18;95134.81;;;8.54;64.53
3150;BME280;32503;47.748;8.960;2024-02-23T00:58:45;95127.13;;;8.49;64.55
3150;BME280;32503;47.748;8.960;2024-02-23T01:01:12;95141.38;;;8.64;64.23
3150;BME280;32503;47.748;8.960;2024-02-23T01:03:39;95144.84;;;8.57;64.69
3150;BME280;32503;47.748;8.960;2024-02-23T01:06:06;95156.00;;;8.63;64.54
3150;BME280;32503;47.748;8.960;2024-02-23T01:08:33;95164.47;;;8.61;64.72
3150;BME280;32503;47.748;8.960;2024-02-23T01:11:01;95178.69;;;8.51;65.17
3150;BME280;32503;47.748;8.960;2024-02-23T01:13:30;95181.38;;;8.47;65.58
3150;BME280;32503;47.748;8.960;2024-02-23T01:15:57;95199.75;;;8.34;66.14
3150;BME280;32503;47.748;8.960;2024-02-23T01:18:24;95210.53;;;8.34;66.86
3150;BME280;32503;47.748;8.960;2024-02-23T01:20:51;95222.06;;;8.31;67.35
3150;BME280;32503;47.748;8.960;2024-02-23T01:23:18;95237.81;;;8.29;67.93
3150;BME280;32503;47.748;8.960;2024-02-23T01:25:45;95240.56;;;8.37;68.32
3150;BME280;32503;47.748;8.960;2024-02-23T01:28:12;95258.59;;;8.32;68.72
3150;BME280;32503;47.748;8.960;2024-02-23T01:30:40;95258.56;;;8.25;69.35
3150;BME280;32503;47.748;8.960;2024-02-23T01:33:07;95268.41;;;7.92;68.32
3150;BME280;32503;47.748;8.960;2024-02-23T01:35:34;95268.44;;;7.96;68.56
3150;BME280;32503;47.748;8.960;2024-02-23T01:38:02;95259.13;;;7.86;68.99
3150;BME280;32503;47.748;8.960;2024-02-23T01:40:29;95258.38;;;7.89;68.23
3150;BME280;32503;47.748;8.960;2024-02-23T01:43:03;95256.78;;;7.81;68.15
3150;BME280;32503;47.748;8.960;2024-02-23T01:45:31;95250.59;;;7.73;68.50
3150;BME280;32503;47.748;8.960;2024-02-23T01:47:59;95257.16;;;7.76;67.79
3150;BME280;32503;47.748;8.960;2024-02-23T01:50:27;95250.59;;;7.70;67.55
3150;BME280;32503;47.748;8.960;2024-02-23T01:53:00;95255.19;;;7.73;67.75
3150;BME280;32503;47.748;8.960;2024-02-23T01:55:29;95245.59;;;7.72;67.31
3150;BME280;32503;47.748;8.960;2024-02-23T01:57:56;95241.34;;;7.71;67.08
3150;BME280;32503;47.748;8.960;2024-02-23T02:00:23;95232.41;;;7.52;66.76
3150;BME280;32503;47.748;8.960;2024-02-23T02:02:51;95240.53;;;7.63;66.41
3150;BME280;32503;47.748;8.960;2024-02-23T02:05:19;95247.50;;;7.68;66.68
3150;BME280;32503;47.748;8.960;2024-02-23T02:07:48;95255.94;;;7.66;66.41
3150;BME280;32503;47.748;8.960;2024-02-23T02:10:20;95258.16;;;7.57;65.99
3150;BME280;32503;47.748;8.960;2024-02-23T02:12:47;95263.19;;;7.62;65.59
3150;BME280;32503;47.748;8.960;2024-02-23T02:15:14;95265.88;;;7.62;65.08
3150;BME280;32503;47.748;8.960;2024-02-23T02:17:41;95250.53;;;7.63;64.80
3150;BME280;32503;47.748;8.960;2024-02-23T02:20:12;95243.56;;;7.54;65.56
3150;BME280;32503;47.748;8.960;2024-02-23T02:22:40;95255.44;;;7.53;65.45
3150;BME280;32503;47.748;8.960;2024-02-23T02:25:08;95245.09;;;7.52;65.67
3150;BME280;32503;47.748;8.960;2024-02-23T02:27:35;95252.75;;;7.53;65.27
3150;BME280;32503;47.748;8.960;2024-02-23T02:30:03;95247.41;;;7.57;65.74
3150;BME280;32503;47.748;8.960;2024-02-23T02:32:30;95233.53;;;7.48;65.91
3150;BME280;32503;47.748;8.960;2024-02-23T02:34:57;95241.63;;;7.55;65.63
3150;BME280;32503;47.748;8.960;2024-02-23T02:37:25;95246.59;;;7.49;65.54
3150;BME280;32503;47.748;8.960;2024-02-23T02:39:53;95251.97;;;7.49;65.67
3150;BME280;32503;47.748;8.960;2024-02-23T02:42:20;95245.09;;;7.52;65.22
3150;BME280;32503;47.748;8.960;2024-02-23T02:44:47;95244.69;;;7.53;66.03
3150;BME280;32503;47.748;8.960;2024-02-23T02:47:14;95229.00;;;7.59;65.59
3150;BME280;32503;47.748;8.960;2024-02-23T02:49:41;95219.00;;;7.59;65.27
3150;BME280;32503;47.748;8.960;2024-02-23T02:52:09;95214.38;;;7.56;65.52
3150;BME280;32503;47.748;8.960;2024-02-23T02:54:36;95214.38;;;7.56;65.45
3150;BME280;32503;47.748;8.960;2024-02-23T02:57:05;95209.72;;;7.53;65.62
3150;BME280;32503;47.748;8.960;2024-02-23T02:59:34;95205.47;;;7.45;65.04
3150;BME280;32503;47.748;8.960;2024-02-23T03:02:01;95206.59;;;7.40;65.67
3150;BME280;32503;47.748;8.960;2024-02-23T03:04:29;95219.66;;;7.42;65.56
3150;BME280;32503;47.748;8.960;2024-02-23T03:06:56;95224.28;;;7.42;65.23
3150;BME280;32503;47.748;8.960;2024-02-23T03:09:23;95217.72;;;7.39;65.51
3150;BME280;32503;47.748;8.960;2024-02-23T03:11:50;95225.03;;;7.42;65.90
3150;BME280;32503;47.748;8.960;2024-02-23T03:14:18;95220.41;;;7.43;65.47
3150;BME280;32503;47.748;8.960;2024-02-23T03:16:46;95216.59;;;7.44;65.83
3150;BME280;32503;47.748;8.960;2024-02-23T03:19:15;95218.53;;;7.43;65.43
3150;BME280;32503;47.748;8.960;2024-02-23T03:21:42;95205.44;;;7.38;65.61
3150;BME280;32503;47.748;8.960;2024-02-23T03:24:09;95208.09;;;7.34;66.22
3150;BME280;32503;47.748;8.960;2024-02-23T03:26:36;95221.94;;;7.36;65.93
3150;BME280;32503;47.748;8.960;2024-02-23T03:29:03;95230.00;;;7.36;66.16
3150;BME280;32503;47.748;8.960;2024-02-23T03:31:31;95221.19;;;7.39;66.29
3150;BME280;32503;47.748;8.960;2024-02-23T03:33:58;95217.72;;;7.43;66.21
3150;BME280;32503;47.748;8.960;2024-02-23T03:36:25;95218.88;;;7.38;66.12
3150;BME280;32503;47.748;8.960;2024-02-23T03:38:52;95217.31;;;7.37;66.38
3150;BME280;32503;47.748;8.960;2024-02-23T03:41:19;95219.66;;;7.42;66.01
3150;BME280;32503;47.748;8.960;2024-02-23T03:43:46;95232.00;;;7.47;66.01
3150;BME280;32503;47.748;8.960;2024-02-23T03:46:13;95233.50;;;7.44;66.28
3150;BME280;32503;47.748;8.960;2024-02-23T03:48:43;95239.53;;;7.30;66.18
3150;BME280;32503;47.748;8.960;2024-02-23T03:51:11;95227.28;;;7.33;65.79
3150;BME280;32503;47.748;8.960;2024-02-23T03:53:38;95227.31;;;7.36;66.13
3150;BME280;32503;47.748;8.960;2024-02-23T03:56:05;95224.97;;;7.31;65.79
3150;BME280;32503;47.748;8.960;2024-02-23T03:58:32;95214.56;;;7.30;65.94
3150;BME280;32503;47.748;8.960;2024-02-23T04:00:59;95207.19;;;7.19;66.32
3150;BME280;32503;47.748;8.960;2024-02-23T04:03:26;95213.31;;;7.16;67.29
3150;BME280;32503;47.748;8.960;2024-02-23T04:05:55;95191.81;;;7.16;66.46
3150;BME280;32503;47.748;8.960;2024-02-23T04:08:22;95196.34;;;7.05;67.38
3150;BME280;32503;47.748;8.960;2024-02-23T04:10:49;95198.56;;;6.96;68.02
3150;BME280;32503;47.748;8.960;2024-02-23T04:13:16;95197.00;;;6.95;68.12
3150;BME280;32503;47.748;8.960;2024-02-23T04:15:44;95197.00;;;6.91;67.60
3150;BME280;32503;47.748;8.960;2024-02-23T04:18:11;95197.66;;;6.81;68.75
3150;BME280;32503;47.748;8.960;2024-02-23T04:20:38;95216.19;;;6.93;68.31
3150;BME280;32503;47.748;8.960;2024-02-23T04:23:06;95206.94;;;6.87;68.66
3150;BME280;32503;47.748;8.960;2024-02-23T04:25:33;95206.13;;;6.79;68.00
3150;BME280;32503;47.748;8.960;2024-02-23T04:28:00;95217.41;;;6.99;67.82
3150;BME280;32503;47.748;8.960;2024-02-23T04:30:28;95221.28;;;7.06;67.56
3150;BME280;32503;47.748;8.960;2024-02-23T04:32:54;95222.34;;;6.94;68.28
3150;BME280;32503;47.748;8.960;2024-02-23T04:35:21;95226.69;;;6.68;68.30
3150;BME280;32503;47.748;8.960;2024-02-23T04:37:48;95221.44;;;6.79;68.94
3150;BME280;32503;47.748;8.960;2024-02-23T04:40:17;95227.25;;;6.88;68.62
3150;BME280;32503;47.748;8.960;2024-02-23T04:42:44;95222.00;;;6.99;67.73
3150;BME280;32503;47.748;8.960;2024-02-23T04:45:13;95210.91;;;7.04;67.09
3150;BME280;32503;47.748;8.960;2024-02-23T04:47:40;95217.88;;;7.12;67.73
3150;BME280;32503;47.748;8.960;2024-02-23T04:50:07;95209.44;;;7.10;66.99
3150;BME280;32503;47.748;8.960;2024-02-23T04:52:35;95219.38;;;7.06;66.05
3150;BME280;32503;47.748;8.960;2024-02-23T04:55:03;95211.09;;;7.26;65.32
3150;BME280;32503;47.748;8.960;2024-02-23T04:57:32;95201.78;;;7.16;64.94
3150;BME280;32503;47.748;8.960;2024-02-23T04:59:59;95213.78;;;7.26;64.26
3150;BME280;32503;47.748;8.960;2024-02-23T05:02:26;95213.38;;;7.20;64.47
3150;BME280;32503;47.748;8.960;2024-02-23T05:04:59;95223.38;;;7.27;64.25
3150;BME280;32503;47.748;8.960;2024-02-23T05:07:26;95224.91;;;7.24;64.38
3150;BME280;32503;47.748;8.960;2024-02-23T05:09:53;95223.78;;;7.32;64.23
3150;BME280;32503;47.748;8.960;2024-02-23T05:12:20;95220.31;;;7.28;63.61
3150;BME280;32503;47.748;8.960;2024-02-23T05:14:49;95228.00;;;7.30;63.78
3150;BME280;32503;47.748;8.960;2024-02-23T05:17:16;95232.59;;;7.26;63.04
3150;BME280;32503;47.748;8.960;2024-02-23T05:19:43;95230.31;;;7.28;63.30
3150;BME280;32503;47.748;8.960;2024-02-23T05:22:12;95232.19;;;7.24;63.03
3150;BME280;32503;47.748;8.960;2024-02-23T05:24:39;95239.47;;;7.23;63.36
3150;BME280;32503;47.748;8.960;2024-02-23T05:27:06;95236.44;;;7.28;62.17
3150;BME280;32503;47.748;8.960;2024-02-23T05:29:33;95224.19;;;7.31;61.89
3150;BME280;32503;47.748;8.960;2024-02-23T05:32:01;95232.63;;;7.29;61.99
3150;BME280;32503;47.748;8.960;2024-02-23T05:34:28;95248.25;;;7.16;61.97
3150;BME280;32503;47.748;8.960;2024-02-23T05:36:56;95253.72;;;7.24;62.22
3150;BME280;32503;47.748;8.960;2024-02-23T05:39:23;95253.72;;;7.24;62.69
3150;BME280;32503;47.748;8.960;2024-02-23T05:41:50;95241.78;;;7.21;62.59
3150;BME280;32503;47.748;8.960;2024-02-23T05:44:17;95234.06;;;7.19;62.92
3150;BME280;32503;47.748;8.960;2024-02-23T05:46:44;95235.25;;;7.22;62.74
3150;BME280;32503;47.748;8.960;2024-02-23T05:49:12;95240.66;;;7.26;63.15
3150;BME280;32503;47.748;8.960;2024-02-23T05:51:39;95232.63;;;7.29;62.80
3150;BME280;32503;47.748;8.960;2024-02-23T05:54:07;95242.59;;;7.29;62.83
3150;BME280;32503;47.748;8.960;2024-02-23T05:56:34;95235.72;;;7.35;62.37
3150;BME280;32503;47.748;8.960;2024-02-23T05:59:03;95229.56;;;7.31;62.80
3150;BME280;32503;47.748;8.960;2024-02-23T06:01:30;95221.09;;;7.29;62.78
3150;BME280;32503;47.748;8.960;2024-02-23T06:03:57;95214.19;;;7.28;62.85
3150;BME280;32503;47.748;8.960;2024-02-23T06:06:25;95208.81;;;7.28;62.96
3150;BME280;32503;47.748;8.960;2024-02-23T06:08:52;95211.16;;;7.33;63.19
3150;BME280;32503;47.748;8.960;2024-02-23T06:11:19;95211.91;;;7.33;62.81
3150;BME280;32503;47.748;8.960;2024-02-23T06:13:46;95193.47;;;7.32;62.66
3150;BME280;32503;47.748;8.960;2024-02-23T06:16:14;95190.00;;;7.28;62.70
3150;BME280;32503;47.748;8.960;2024-02-23T06:18:41;95197.59;;;7.15;63.24
3150;BME280;32503;47.748;8.960;2024-02-23T06:21:13;95192.94;;;7.12;64.35
3150;BME280;32503;47.748;8.960;2024-02-23T06:23:42;95197.13;;;7.09;63.73
3150;BME280;32503;47.748;8.960;2024-02-23T06:26:09;95205.53;;;7.04;63.56
3150;BME280;32503;47.748;8.960;2024-02-23T06:28:37;95210.91;;;7.04;63.35
3150;BME280;32503;47.748;8.960;2024-02-23T06:31:05;95227.84;;;7.08;64.12
3150;BME280;32503;47.748;8.960;2024-02-23T06:33:32;95236.34;;;7.14;63.56
3150;BME280;32503;47.748;8.960;2024-02-23T06:35:59;95232.09;;;7.13;63.59
3150;BME280;32503;47.748;8.960;2024-02-23T06:38:27;95246.75;;;7.19;63.18
3150;BME280;32503;47.748;8.960;2024-02-23T06:40:56;95246.38;;;7.20;63.08
3150;BME280;32503;47.748;8.960;2024-02-23T06:43:23;95242.13;;;7.19;63.12
3150;BME280;32503;47.748;8.960;2024-02-23T06:45:50;95226.00;;;7.19;63.21
3150;BME280;32503;47.748;8.960;2024-02-23T06:48:17;95219.50;;;7.20;63.51
3150;BME280;32503;47.748;8.960;2024-02-23T06:50:44;95229.50;;;7.24;62.71
3150;BME280;32503;47.748;8.960;2024-02-23T06:53:11;95239.47;;;7.23;62.93
3150;BME280;32503;47.748;8.960;2024-02-23T06:55:38;95234.91;;;7.27;62.80
3150;BME280;32503;47.748;8.960;2024-02-23T06:58:06;95224.19;;;7.31;63.35
3150;BME280;32503;47.748;8.960;2024-02-23T07:00:34;95235.38;;;7.36;62.69
3150;BME280;32503;47.748;8.960;2024-02-23T07:03:02;95230.38;;;7.35;62.58
3150;BME280;32503;47.748;8.960;2024-02-23T07:05:29;95232.66;;;7.33;62.53
3150;BME280;32503;47.748;8.960;2024-02-23T07:07:56;95231.50;;;7.34;62.68
3150;BME280;32503;47.748;8.960;2024-02-23T07:10:24;95231.53;;;7.41;62.26
3150;BME280;32503;47.748;8.960;2024-02-23T07:12:51;95233.47;;;7.40;62.13
3150;BME280;32503;47.748;8.960;2024-02-23T07:15:21;95237.34;;;7.43;61.78
3150;BME280;32503;47.748;8.960;2024-02-23T07:17:48;95239.59;;;7.41;62.15
3150;BME280;32503;47.748;8.960;2024-02-23T07:20:16;95251.91;;;7.42;62.29
3150;BME280;32503;47.748;8.960;2024-02-23T07:22:44;95245.41;;;7.43;61.27
3150;BME280;32503;47.748;8.960;2024-02-23T07:25:11;95252.69;;;7.43;61.26
3150;BME280;32503;47.748;8.960;2024-02-23T07:27:39;95260.31;;;7.37;61.41
3150;BME280;32503;47.748;8.960;2024-02-23T07:30:07;95264.13;;;7.32;61.40
3150;BME280;32503;47.748;8.960;2024-02-23T07:32:36;95268.38;;;7.37;61.16
3150;BME280;32503;47.748;8.960;2024-02-23T07:35:04;95268.72;;;7.32;61.28
3150;BME280;32503;47.748;8.960;2024-02-23T07:37:31;95270.97;;;7.22;62.03
3150;BME280;32503;47.748;8.960;2024-02-23T07:39:58;95259.75;;;7.13;61.89
3150;BME280;32503;47.748;8.960;2024-02-23T07:42:25;95265.59;;;7.22;61.67
3150;BME280;32503;47.748;8.960;2024-02-23T07:44:52;95262.19;;;7.29;62.12
3150;BME280;32503;47.748;8.960;2024-02-23T07:47:19;95266.41;;;7.30;61.75
3150;BME280;32503;47.748;8.960;2024-02-23T07:49:48;95277.19;;;7.34;62.16
3150;BME280;32503;47.748;8.960;2024-02-23T07:52:15;95274.50;;;7.34;61.42
3150;BME280;32503;47.748;8.960;2024-02-23T07:54:42;95278.28;;;7.26;61.65
3150;BME280;32503;47.748;8.960;2024-02-23T07:57:09;95273.31;;;7.28;61.21
3150;BME280;32503;47.748;8.960;2024-02-23T07:59:36;95273.34;;;7.31;61.31
3150;BME280;32503;47.748;8.960;2024-02-23T08:02:03;95223.91;;;6.98;61.50
3150;BME280;32503;47.748;8.960;2024-02-23T08:04:30;95268.75;;;7.35;61.67
3150;BME280;32503;47.748;8.960;2024-02-23T08:06:59;95269.56;;;7.39;61.34
3150;BME280;32503;47.748;8.960;2024-02-23T08:09:26;95276.50;;;7.44;62.03
3150;BME280;32503;47.748;8.960;2024-02-23T08:11:53;95272.69;;;7.45;61.95
3150;BME280;32503;47.748;8.960;2024-02-23T08:14:20;95276.94;;;7.50;61.09
3150;BME280;32503;47.748;8.960;2024-02-23T08:16:47;95277.38;;;7.55;61.42
3150;BME280;32503;47.748;8.960;2024-02-23T08:19:16;95286.59;;;7.58;61.25
3150;BME280;32503;47.748;8.960;2024-02-23T08:21:43;95275.91;;;7.65;61.07
3150;BME280;32503;47.748;8.960;2024-02-23T08:24:11;95277.09;;;7.68;61.30
3150;BME280;32503;47.748;8.960;2024-02-23T08:26:39;95272.84;;;7.67;61.26
3150;BME280;32503;47.748;8.960;2024-02-23T08:29:06;95266.72;;;7.70;61.27
3150;BME280;32503;47.748;8.960;2024-02-23T08:31:34;95268.28;;;7.74;61.40
3150;BME280;32503;47.748;8.960;2024-02-23T08:34:01;95272.16;;;7.77;61.01
3150;BME280;32503;47.748;8.960;2024-02-23T08:36:28;95262.16;;;7.77;61.00
3150;BME280;32503;47.748;8.960;2024-02-23T08:38:55;95254.50;;;7.83;61.16
3150;BME280;32503;47.748;8.960;2024-02-23T08:41:24;95259.88;;;7.83;60.92
3150;BME280;32503;47.748;8.960;2024-02-23T08:43:51;95265.66;;;7.85;60.52
3150;BME280;32503;47.748;8.960;2024-02-23T08:46:20;95262.97;;;7.85;60.44
3150;BME280;32503;47.748;8.960;2024-02-23T08:48:47;95265.25;;;7.83;60.51
3150;BME280;32503;47.748;8.960;2024-02-23T08:51:14;95266.09;;;7.91;60.34
3150;BME280;32503;47.748;8.960;2024-02-23T08:53:41;95266.13;;;7.98;60.25
3150;BME280;32503;47.748;8.960;2024-02-23T08:56:09;95262.66;;;7.97;60.49
3150;BME280;32503;47.748;8.960;2024-02-23T08:58:38;95258.81;;;7.98;61.09
3150;BME280;32503;47.748;8.960;2024-02-23T09:01:05;95248.44;;;7.97;60.90
3150;BME280;32503;47.748;8.960;2024-02-23T09:03:32;95257.69;;;8.03;60.58
3150;BME280;32503;47.748;8.960;2024-02-23T09:05:59;95257.72;;;8.07;60.52
3150;BME280;32503;47.748;8.960;2024-02-23T09:08:26;95265.78;;;8.07;60.79
3150;BME280;32503;47.748;8.960;2024-02-23T09:10:53;95268.13;;;8.12;60.73
3150;BME280;32503;47.748;8.960;2024-02-23T09:13:21;95253.91;;;8.19;60.99
3150;BME280;32503;47.748;8.960;2024-02-23T09:15:49;95242.81;;;8.27;61.62
3150;BME280;32503;47.748;8.960;2024-02-23T09:18:16;95253.59;;;8.31;61.18
3150;BME280;32503;47.748;8.960;2024-02-23T09:20:44;95251.69;;;8.35;60.75
3150;BME280;32503;47.748;8.960;2024-02-23T09:23:11;95261.69;;;8.38;60.27
3150;BME280;32503;47.748;8.960;2024-02-23T09:25:39;95256.72;;;8.37;59.88
3150;BME280;32503;47.748;8.960;2024-02-23T09:28:07;95257.09;;;8.39;60.08
3150;BME280;32503;47.748;8.960;2024-02-23T09:30:36;95251.72;;;8.39;59.88
3150;BME280;32503;47.748;8.960;2024-02-23T09:33:05;95253.25;;;8.40;59.35
3150;BME280;32503;47.748;8.960;2024-02-23T09:35:32;95261.78;;;8.45;59.17
3150;BME280;32503;47.748;8.960;2024-02-23T09:37:59;95262.94;;;8.48;59.22
3150;BME280;32503;47.748;8.960;2024-02-23T09:40:27;95265.63;;;8.51;59.32
3150;BME280;32503;47.748;8.960;2024-02-23T09:42:56;95261.00;;;8.48;59.46
3150;BME280;32503;47.748;8.960;2024-02-23T09:45:24;95260.19;;;8.41;58.58
3150;BME280;32503;47.748;8.960;2024-02-23T09:47:53;95241.66;;;8.25;58.48
3150;BME280;32503;47.748;8.960;2024-02-23T09:50:24;95252.41;;;8.21;58.59
3150;BME280;32503;47.748;8.960;2024-02-23T09:52:51;95259.19;;;7.97;59.34
3150;BME280;32503;47.748;8.960;2024-02-23T09:55:18;95246.16;;;8.06;59.59
3150;BME280;32503;47.748;8.960;2024-02-23T09:57:49;95257.75;;;8.14;59.69
3150;BME280;32503;47.748;8.960;2024-02-23T10:00:20;95238.56;;;8.23;59.21
3150;BME280;32503;47.748;8.960;2024-02-23T10:02:47;95238.22;;;8.31;59.33
3150;BME280;32503;47.748;8.960;2024-02-23T10:05:15;95234.75;;;8.31;58.77
3150;BME280;32503;47.748;8.960;2024-02-23T10:07:45;95246.31;;;8.31;58.47
3150;BME280;32503;47.748;8.960;2024-02-23T10:10:12;95252.47;;;8.35;58.29
3150;BME280;32503;47.748;8.960;2024-02-23T10:12:39;95252.84;;;8.38;57.99
3150;BME280;32503;47.748;8.960;2024-02-23T10:15:07;95237.06;;;8.32;56.96
3150;BME280;32503;47.748;8.960;2024-02-23T10:17:35;95238.22;;;8.35;56.66
3150;BME280;32503;47.748;8.960;2024-02-23T10:20:02;95234.38;;;8.40;56.39
3150;BME280;32503;47.748;8.960;2024-02-23T10:22:30;95228.66;;;8.45;56.15
3150;BME280;32503;47.748;8.960;2024-02-23T10:24:59;95231.38;;;8.52;56.30
3150;BME280;32503;47.748;8.960;2024-02-23T10:27:26;95240.66;;;8.65;56.25
3150;BME280;32503;47.748;8.960;2024-02-23T10:29:53;95245.69;;;8.70;55.76
3150;BME280;32503;47.748;8.960;2024-02-23T10:32:20;95182.84;;;8.38;55.22
3150;BME280;32503;47.748;8.960;2024-02-23T10:34:48;95241.09;;;8.82;55.08
3150;BME280;32503;47.748;8.960;2024-02-23T10:37:16;95238.78;;;8.87;54.09
3150;BME280;32503;47.748;8.960;2024-02-23T10:39:44;95244.16;;;8.84;52.93
3150;BME280;32503;47.748;8.960;2024-02-23T10:42:14;95255.75;;;8.88;52.69
3150;BME280;32503;47.748;8.960;2024-02-23T10:44:45;95247.66;;;8.88;52.70
3150;BME280;32503;47.748;8.960;2024-02-23T10:47:12;95244.97;;;8.91;52.64
3150;BME280;32503;47.748;8.960;2024-02-23T10:49:39;95246.50;;;8.92;52.68
3150;BME280;32503;47.748;8.960;2024-02-23T10:52:07;95245.72;;;8.96;51.21
3150;BME280;32503;47.748;8.960;2024-02-23T10:54:38;95231.09;;;8.86;51.48
3150;BME280;32503;47.748;8.960;2024-02-23T10:57:06;95258.06;;;9.00;52.07
3150;BME280;32503;47.748;8.960;2024-02-23T10:59:35;95252.69;;;9.07;52.35
3150;BME280;32503;47.748;8.960;2024-02-23T11:02:05;95258.47;;;9.13;51.91
3150;BME280;32503;47.748;8.960;2024-02-23T11:04:33;95256.91;;;9.16;50.37
3150;BME280;32503;47.748;8.960;2024-02-23T11:07:01;95260.78;;;9.22;50.21
3150;BME280;32503;47.748;8.960;2024-02-23T11:09:33;95259.53;;;8.65;51.50
3150;BME280;32503;47.748;8.960;2024-02-23T11:12:04;95251.88;;;8.82;51.27
3150;BME280;32503;47.748;8.960;2024-02-23T11:14:32;95250.34;;;8.81;51.48
3150;BME280;32503;47.748;8.960;2024-02-23T11:17:01;95248.00;;;8.76;51.79
3150;BME280;32503;47.748;8.960;2024-02-23T11:19:37;95245.69;;;8.70;53.41
3150;BME280;32503;47.748;8.960;2024-02-23T11:22:04;95214.72;;;8.25;53.91
3150;BME280;32503;47.748;8.960;2024-02-23T11:24:32;95246.41;;;8.53;53.32
3150;BME280;32503;47.748;8.960;2024-02-23T11:27:00;95247.78;;;8.18;54.44
3150;BME280;32503;47.748;8.960;2024-02-23T11:29:34;95240.91;;;8.28;54.49
3150;BME280;32503;47.748;8.960;2024-02-23T11:32:04;95229.34;;;8.27;54.63
3150;BME280;32503;47.748;8.960;2024-02-23T11:34:39;95234.72;;;8.27;54.75
3150;BME280;32503;47.748;8.960;2024-02-23T11:37:10;95208.16;;;8.15;54.41
3150;BME280;32503;47.748;8.960;2024-02-23T11:39:38;95226.97;;;8.15;54.62
3150;BME280;32503;47.748;8.960;2024-02-23T11:42:07;95221.00;;;8.50;54.38
3150;BME280;32503;47.748;8.960;2024-02-23T11:44:35;95216.44;;;8.72;54.46
3150;BME280;32503;47.748;8.960;2024-02-23T11:47:03;95224.38;;;8.33;54.46
3150;BME280;32503;47.748;8.960;2024-02-23T11:49:30;95224.13;;;8.70;54.37
3150;BME280;32503;47.748;8.960;2024-02-23T11:51:58;95219.50;;;8.75;54.74
3150;BME280;32503;47.748;8.960;2024-02-23T11:54:25;95222.53;;;8.51;53.35
3150;BME280;32503;47.748;8.960;2024-02-23T11:56:52;95220.97;;;8.47;53.66
3150;BME280;32503;47.748;8.960;2024-02-23T11:59:20;95219.31;;;8.17;54.85
3150;BME280;32503;47.748;8.960;2024-02-23T12:01:47;95218.47;;;7.98;55.05
3150;BME280;32503;47.748;8.960;2024-02-23T12:04:15;95215.38;;;7.96;54.35
3150;BME280;32503;47.748;8.960;2024-02-23T12:06:43;95209.25;;;8.00;53.02
3150;BME280;32503;47.748;8.960;2024-02-23T12:09:12;95202.81;;;8.29;51.99
3150;BME280;32503;47.748;8.960;2024-02-23T12:11:40;95203.53;;;8.12;52.01
3150;BME280;32503;47.748;8.960;2024-02-23T12:14:07;95201.97;;;8.11;52.89
3150;BME280;32503;47.748;8.960;2024-02-23T12:16:34;95198.03;;;7.87;52.21
3150;BME280;32503;47.748;8.960;2024-02-23T12:19:02;95191.81;;;7.75;53.22
3150;BME280;32503;47.748;8.960;2024-02-23T12:21:34;95179.69;;;8.07;52.74
3150;BME280;32503;47.748;8.960;2024-02-23T12:24:05;95182.47;;;8.35;51.67
3150;BME280;32503;47.748;8.960;2024-02-23T12:26:33;95187.56;;;8.62;51.50
3150;BME280;32503;47.748;8.960;2024-02-23T12:29:01;95191.81;;;8.85;50.29
3150;BME280;32503;47.748;8.960;2024-02-23T12:31:31;95194.13;;;8.68;49.80
3150;BME280;32503;47.748;8.960;2024-02-23T12:33:58;95197.94;;;8.64;50.27
3150;BME280;32503;47.748;8.960;2024-02-23T12:36:25;95197.59;;;8.94;50.12
3150;BME280;32503;47.748;8.960;2024-02-23T12:38:54;95203.00;;;8.90;49.60
3150;BME280;32503;47.748;8.960;2024-02-23T12:41:21;95207.59;;;8.72;50.66
3150;BME280;32503;47.748;8.960;2024-02-23T12:43:48;95203.75;;;8.91;50.38
3150;BME280;32503;47.748;8.960;2024-02-23T12:46:15;95205.69;;;9.12;50.01
3150;BME280;32503;47.748;8.960;2024-02-23T12:48:43;95203.41;;;9.32;49.35
3150;BME280;32503;47.748;8.960;2024-02-23T12:51:10;95198.00;;;9.46;49.31
3150;BME280;32503;47.748;8.960;2024-02-23T12:53:39;95184.91;;;9.27;49.03
3150;BME280;32503;47.748;8.960;2024-02-23T12:56:09;95196.84;;;9.26;48.39
3150;BME280;32503;47.748;8.960;2024-02-23T12:58:38;95198.00;;;9.32;49.46
3150;BME280;32503;47.748;8.960;2024-02-23T13:01:05;95189.91;;;9.32;48.93
3150;BME280;32503;47.748;8.960;2024-02-23T13:03:35;95182.59;;;9.33;47.97
3150;BME280;32503;47.748;8.960;2024-02-23T13:06:03;95177.19;;;9.36;48.51
3150;BME280;32503;47.748;8.960;2024-02-23T13:08:30;95143.28;;;9.28;49.26
3150;BME280;32503;47.748;8.960;2024-02-23T13:10:58;95162.91;;;9.54;50.10
3150;BME280;32503;47.748;8.960;2024-02-23T13:13:26;95164.44;;;9.62;49.08
3150;BME280;32503;47.748;8.960;2024-02-23T13:15:55;95165.59;;;9.57;49.73
3150;BME280;32503;47.748;8.960;2024-02-23T13:18:22;95169.47;;;9.53;50.47
3150;BME280;32503;47.748;8.960;2024-02-23T13:20:50;95163.31;;;9.48;50.21
3150;BME280;32503;47.748;8.960;2024-02-23T13:23:18;95158.69;;;9.42;49.50
3150;BME280;32503;47.748;8.960;2024-02-23T13:25:45;95155.56;;;9.58;49.50